createdAt,value
2016-05-19T00:00:21.495Z,0
2016-05-19T00:01:21.559Z,0
2016-05-19T00:02:22.265Z,0
2016-05-19T00:03:22.159Z,0
2016-05-19T00:04:21.551Z,0
2016-05-19T00:05:36.273Z,0
2016-05-19T00:06:22.838Z,0
2016-05-19T00:07:23.638Z,0
2016-05-19T00:08:22.016Z,0
2016-05-19T00:09:23.128Z,0
2016-05-19T00:10:22.287Z,0
2016-05-19T00:11:21.524Z,0
2016-05-19T00:12:22.417Z,0
2016-05-19T00:13:21.530Z,0
2016-05-19T00:14:21.689Z,0
2016-05-19T00:16:23.241Z,0
2016-05-19T00:17:23.072Z,0
2016-05-19T00:18:21.761Z,0
2016-05-19T00:19:22.139Z,0
2016-05-19T00:20:21.719Z,0
2016-05-19T00:21:22.238Z,0
2016-05-19T00:22:22.116Z,0
2016-05-19T00:23:22.024Z,0
2016-05-19T00:24:21.669Z,0
2016-05-19T00:25:21.655Z,0
2016-05-19T00:26:21.657Z,0
2016-05-19T00:27:21.660Z,0
2016-05-19T00:28:21.663Z,0
2016-05-19T00:29:21.494Z,0
2016-05-19T00:30:21.481Z,0
2016-05-19T00:31:21.640Z,0
2016-05-19T00:32:21.501Z,0
2016-05-19T00:33:21.645Z,0
2016-05-19T00:34:21.632Z,0
2016-05-19T00:35:21.495Z,0
2016-05-19T00:36:21.670Z,0
2016-05-19T00:37:21.484Z,0
2016-05-19T00:38:21.503Z,0
2016-05-19T00:39:21.631Z,0
2016-05-19T00:40:21.477Z,0
2016-05-19T00:41:21.480Z,0
2016-05-19T00:42:21.467Z,0
2016-05-19T00:43:21.469Z,0
2016-05-19T00:44:21.456Z,0
2016-05-19T00:45:21.459Z,0
2016-05-19T00:46:21.461Z,0
2016-05-19T00:47:21.621Z,0
2016-05-19T00:48:21.624Z,0
2016-05-19T00:49:21.610Z,0
2016-05-19T00:50:21.597Z,0
2016-05-19T00:51:21.460Z,0
2016-05-19T00:52:21.446Z,0
2016-05-19T00:53:21.605Z,0
2016-05-19T00:54:21.436Z,0
2016-05-19T00:55:21.283Z,0
2016-05-19T00:56:21.583Z,0
2016-05-19T00:57:21.585Z,0
2016-05-19T00:58:21.587Z,0
2016-05-19T00:59:21.591Z,0
2016-05-19T01:00:21.577Z,0
2016-05-19T01:01:21.595Z,0
2016-05-19T01:02:21.270Z,0
2016-05-19T01:03:21.414Z,0
2016-05-19T01:04:21.573Z,0
2016-05-19T01:05:21.263Z,0
2016-05-19T01:06:21.406Z,0
2016-05-19T01:07:21.565Z,0
2016-05-19T01:08:21.693Z,0
2016-05-19T01:09:21.570Z,0
2016-05-19T01:10:21.558Z,0
2016-05-19T01:11:21.560Z,0
2016-05-19T01:12:23.000Z,0
2016-05-19T01:13:22.050Z,0
2016-05-19T01:14:21.850Z,0
2016-05-19T01:15:21.399Z,0
2016-05-19T01:16:21.886Z,0
2016-05-19T01:17:21.655Z,0
2016-05-19T01:18:21.392Z,0
2016-05-19T01:19:21.535Z,0
2016-05-19T01:20:21.537Z,0
2016-05-19T01:21:23.775Z,0
2016-05-19T01:22:23.325Z,0
2016-05-19T01:23:21.796Z,0
2016-05-19T01:24:35.970Z,0
2016-05-19T01:25:39.410Z,0
2016-05-19T01:26:21.819Z,0
2016-05-19T01:27:21.666Z,0
2016-05-19T01:28:22.449Z,0
2016-05-19T01:29:21.734Z,0
2016-05-19T01:30:21.705Z,0
2016-05-19T01:31:21.739Z,0
2016-05-19T01:32:21.367Z,0
2016-05-19T01:33:21.510Z,0
2016-05-19T01:34:23.450Z,0
2016-05-19T01:35:21.828Z,0
2016-05-19T01:36:23.112Z,0
2016-05-19T01:37:21.489Z,0
2016-05-19T01:38:22.571Z,0
2016-05-19T01:39:22.213Z,0
2016-05-19T01:40:21.747Z,0
2016-05-19T01:41:21.344Z,0
2016-05-19T01:42:21.487Z,0
2016-05-19T01:43:21.490Z,0
2016-05-19T01:44:21.493Z,0
2016-05-19T01:45:21.323Z,0
2016-05-19T01:46:21.342Z,0
2016-05-19T01:47:21.157Z,0
2016-05-19T01:48:21.472Z,0
2016-05-19T01:49:21.475Z,0
2016-05-19T01:50:21.462Z,0
2016-05-19T01:51:21.464Z,0
2016-05-19T01:52:21.452Z,0
2016-05-19T01:53:21.205Z,0
2016-05-19T01:54:21.457Z,0
2016-05-19T01:55:21.460Z,0
2016-05-19T01:56:21.447Z,0
2016-05-19T01:57:21.152Z,0
2016-05-19T01:58:21.296Z,0
2016-05-19T01:59:21.440Z,0
2016-05-19T02:00:21.426Z,0
2016-05-19T02:01:21.429Z,0
2016-05-19T02:02:21.431Z,0
2016-05-19T02:03:21.434Z,0
2016-05-19T02:04:21.422Z,0
2016-05-19T02:05:21.424Z,0
2016-05-19T02:06:21.426Z,0
2016-05-19T02:07:21.414Z,0
2016-05-19T02:08:21.604Z,0
2016-05-19T02:09:21.420Z,0
2016-05-19T02:10:21.407Z,0
2016-05-19T02:11:21.253Z,0
2016-05-19T02:12:21.428Z,0
2016-05-19T02:13:21.415Z,0
2016-05-19T02:14:21.276Z,0
2016-05-19T02:15:21.404Z,0
2016-05-19T02:16:21.250Z,0
2016-05-19T02:17:21.394Z,0
2016-05-19T02:18:21.397Z,0
2016-05-19T02:19:21.399Z,0
2016-05-19T02:20:21.230Z,0
2016-05-19T02:21:21.405Z,0
2016-05-19T02:22:21.376Z,0
2016-05-19T02:23:21.222Z,0
2016-05-19T02:24:21.514Z,0
2016-05-19T02:25:21.236Z,0
2016-05-19T02:26:21.220Z,0
2016-05-19T02:27:21.082Z,0
2016-05-19T02:28:21.385Z,0
2016-05-19T02:29:21.372Z,0
2016-05-19T02:30:21.044Z,0
2016-05-19T02:31:35.377Z,0
2016-05-19T02:32:49.707Z,0
2016-05-19T02:33:22.179Z,0
2016-05-19T02:34:21.366Z,0
2016-05-19T02:35:21.494Z,0
2016-05-19T02:36:21.201Z,0
2016-05-19T02:37:21.343Z,0
2016-05-19T02:38:21.787Z,0
2016-05-19T02:39:21.349Z,0
2016-05-19T02:40:23.210Z,0
2016-05-19T02:41:21.663Z,0
2016-05-19T02:42:22.037Z,0
2016-05-19T02:43:22.099Z,0
2016-05-19T02:44:23.145Z,0
2016-05-19T02:45:21.973Z,0
2016-05-19T02:46:21.500Z,0
2016-05-19T02:47:22.146Z,0
2016-05-19T02:48:22.399Z,0
2016-05-19T02:49:21.430Z,0
2016-05-19T02:50:21.902Z,0
2016-05-19T02:51:21.616Z,0
2016-05-19T02:52:21.609Z,0
2016-05-19T02:53:21.946Z,0
2016-05-19T02:54:22.806Z,0
2016-05-19T02:55:22.953Z,0
2016-05-19T02:56:22.551Z,0
2016-05-19T02:57:21.583Z,0
2016-05-19T02:58:22.352Z,0
2016-05-19T02:59:21.310Z,0
2016-05-19T03:00:21.300Z,0
2016-05-19T03:01:21.366Z,0
2016-05-19T03:02:21.463Z,0
2016-05-19T03:03:21.622Z,0
2016-05-19T03:04:21.595Z,0
2016-05-19T03:05:21.614Z,0
2016-05-19T03:06:21.477Z,0
2016-05-19T03:07:21.449Z,0
2016-05-19T03:08:21.623Z,0
2016-05-19T03:09:21.455Z,0
2016-05-19T03:10:21.285Z,0
2016-05-19T03:11:21.585Z,5
2016-05-19T03:12:21.588Z,5
2016-05-19T03:13:21.591Z,5
2016-05-19T03:14:21.594Z,5
2016-05-19T03:15:21.581Z,5
2016-05-19T03:16:21.427Z,5
2016-05-19T03:17:21.586Z,5
2016-05-19T03:18:21.573Z,5
2016-05-19T03:19:21.419Z,5
2016-05-19T03:20:21.578Z,5
2016-05-19T03:21:21.410Z,5
2016-05-19T03:22:21.568Z,5
2016-05-19T03:23:22.118Z,5
2016-05-19T03:24:21.557Z,10
2016-05-19T03:25:21.560Z,10
2016-05-19T03:26:21.407Z,10
2016-05-19T03:27:21.565Z,10
2016-05-19T03:28:21.396Z,10
2016-05-19T03:29:21.556Z,10
2016-05-19T03:30:21.387Z,10
2016-05-19T03:31:21.404Z,15
2016-05-19T03:32:21.548Z,15
2016-05-19T03:33:21.535Z,15
2016-05-19T03:34:21.382Z,15
2016-05-19T03:35:21.541Z,15
2016-05-19T03:36:21.387Z,15
2016-05-19T03:37:21.546Z,15
2016-05-19T03:38:21.548Z,20
2016-05-19T03:39:21.519Z,20
2016-05-19T03:40:21.367Z,20
2016-05-19T03:41:21.525Z,20
2016-05-19T03:42:21.528Z,20
2016-05-19T03:43:21.530Z,20
2016-05-19T03:44:21.517Z,20
2016-05-19T03:45:21.505Z,20
2016-05-19T03:46:21.507Z,25
2016-05-19T03:47:21.510Z,25
2016-05-19T03:48:21.497Z,25
2016-05-19T03:49:22.203Z,25
2016-05-19T03:50:21.613Z,25
2016-05-19T03:51:21.490Z,25
2016-05-19T03:52:21.993Z,25
2016-05-19T03:53:36.155Z,30
2016-05-19T03:54:21.827Z,30
2016-05-19T03:57:23.068Z,30
2016-05-19T03:58:22.087Z,30
2016-05-19T04:02:26.053Z,35
2016-05-19T04:03:24.303Z,35
2016-05-19T04:04:22.150Z,35
2016-05-19T04:05:22.856Z,35
2016-05-19T04:06:22.248Z,35
2016-05-19T04:07:22.251Z,35
2016-05-19T04:08:22.520Z,35
2016-05-19T04:09:21.445Z,35
2016-05-19T04:10:21.463Z,40
2016-05-19T04:11:21.137Z,40
2016-05-19T04:12:23.312Z,40
2016-05-19T04:13:23.315Z,40
2016-05-19T04:14:22.833Z,40
2016-05-19T04:15:21.850Z,40
2016-05-19T04:16:21.900Z,40
2016-05-19T04:17:21.466Z,45
2016-05-19T04:18:22.234Z,50
2016-05-19T04:19:21.252Z,50
2016-05-19T04:20:21.114Z,55
2016-05-19T04:21:21.429Z,55
2016-05-19T04:22:21.104Z,55
2016-05-19T04:23:21.419Z,55
2016-05-19T04:24:21.422Z,60
2016-05-19T04:25:21.097Z,60
2016-05-19T04:26:21.255Z,60
2016-05-19T04:27:21.415Z,60
2016-05-19T04:28:21.418Z,60
2016-05-19T04:29:22.014Z,65
2016-05-19T04:30:22.595Z,65
2016-05-19T04:31:23.769Z,65
2016-05-19T04:32:23.382Z,65
2016-05-19T04:44:21.367Z,95
2016-05-19T04:45:21.369Z,100
2016-05-19T04:46:21.231Z,100
2016-05-19T04:47:21.077Z,105
2016-05-19T04:48:21.206Z,105
2016-05-19T04:55:21.038Z,120
2016-05-19T04:56:21.352Z,120
2016-05-19T04:57:21.182Z,120
2016-05-19T04:58:21.186Z,120
2016-05-19T04:59:20.876Z,125
2016-05-19T05:00:21.332Z,125
2016-05-19T05:01:21.366Z,130
2016-05-19T05:02:21.337Z,135
2016-05-19T05:03:21.340Z,140
2016-05-19T05:04:21.326Z,140
2016-05-19T05:05:21.173Z,140
2016-05-19T05:06:21.332Z,145
2016-05-19T05:07:21.179Z,145
2016-05-19T05:08:49.637Z,150
2016-05-19T05:09:23.278Z,155
2016-05-19T05:10:21.624Z,155
2016-05-19T05:11:22.064Z,160
2016-05-19T05:12:26.239Z,165
2016-05-19T05:38:20.934Z,220
2016-05-19T05:39:21.296Z,220
2016-05-19T05:40:21.284Z,220
2016-05-19T05:41:21.286Z,225
2016-05-19T05:42:21.289Z,230
2016-05-19T05:43:21.292Z,230
2016-05-19T05:44:21.279Z,230
2016-05-19T05:45:21.297Z,235
2016-05-19T05:46:21.284Z,235
2016-05-19T05:47:20.973Z,240
2016-05-19T05:48:21.133Z,240
2016-05-19T05:49:21.291Z,240
2016-05-19T05:50:21.279Z,240
2016-05-19T05:51:21.281Z,240
2016-05-19T05:52:20.816Z,240
2016-05-19T05:53:23.209Z,235
2016-05-19T05:54:21.289Z,235
2016-05-19T05:55:21.277Z,230
2016-05-19T05:56:21.280Z,230
2016-05-19T05:57:21.297Z,230
2016-05-19T05:58:21.285Z,235
2016-05-19T05:59:21.271Z,240
2016-05-19T06:00:21.274Z,245
2016-05-19T06:01:21.277Z,245
2016-05-19T06:02:21.296Z,250
2016-05-19T06:03:20.971Z,255
2016-05-19T06:04:21.129Z,260
2016-05-19T06:05:21.132Z,265
2016-05-19T06:06:21.275Z,265
2016-05-19T06:07:20.965Z,270
2016-05-19T06:08:21.296Z,270
2016-05-19T06:09:21.282Z,275
2016-05-19T06:10:21.270Z,280
2016-05-19T06:11:21.288Z,290
2016-05-19T06:12:21.119Z,290
2016-05-19T06:13:21.122Z,300
2016-05-19T06:14:21.265Z,310
2016-05-19T06:15:21.112Z,320
2016-05-19T06:16:20.974Z,335
2016-05-19T06:17:21.117Z,345
2016-05-19T06:18:21.276Z,355
2016-05-19T06:19:21.278Z,365
2016-05-19T06:20:21.266Z,380
2016-05-19T06:21:21.283Z,390
2016-05-19T06:22:21.287Z,400
2016-05-19T06:23:20.852Z,405
2016-05-19T06:24:21.277Z,415
2016-05-19T06:25:20.811Z,420
2016-05-19T06:26:21.283Z,420
2016-05-19T06:27:49.630Z,430
2016-05-19T06:28:22.271Z,430
2016-05-19T06:29:22.508Z,440
2016-05-19T06:30:21.933Z,450
2016-05-19T06:31:35.845Z,455
2016-05-19T06:32:21.580Z,460
2016-05-19T06:33:21.535Z,460
2016-05-19T06:34:21.335Z,460
2016-05-19T06:35:21.135Z,465
2016-05-19T06:36:21.887Z,465
2016-05-19T06:37:21.296Z,470
2016-05-19T06:38:21.814Z,480
2016-05-19T06:39:21.551Z,485
2016-05-19T06:40:22.507Z,495
2016-05-19T06:41:23.151Z,500
2016-05-19T06:42:22.871Z,510
2016-05-19T06:43:22.265Z,510
2016-05-19T06:44:21.471Z,515
2016-05-19T06:45:21.709Z,525
2016-05-19T06:46:22.039Z,540
2016-05-19T06:47:21.698Z,555
2016-05-19T06:48:21.154Z,570
2016-05-19T06:49:22.156Z,585
2016-05-19T06:50:21.314Z,595
2016-05-19T06:51:22.661Z,605
2016-05-19T06:52:21.305Z,605
2016-05-19T06:53:21.183Z,600
2016-05-19T06:54:21.889Z,605
2016-05-19T06:55:21.328Z,605
2016-05-19T06:56:21.159Z,610
2016-05-19T06:57:21.522Z,620
2016-05-19T06:58:21.337Z,635
2016-05-19T06:59:21.182Z,655
2016-05-19T07:00:21.186Z,670
2016-05-19T07:01:21.329Z,670
2016-05-19T07:02:21.332Z,680
2016-05-19T07:03:21.177Z,715
2016-05-19T07:04:21.352Z,680
2016-05-19T07:05:21.340Z,685
2016-05-19T07:06:21.358Z,705
2016-05-19T07:07:21.204Z,735
2016-05-19T07:08:21.348Z,760
2016-05-19T07:09:21.226Z,800
2016-05-19T07:10:21.368Z,840
2016-05-19T07:11:21.059Z,815
2016-05-19T07:12:21.234Z,805
2016-05-19T07:13:21.251Z,805
2016-05-19T07:14:21.379Z,820
2016-05-19T07:15:21.382Z,840
2016-05-19T07:16:21.400Z,865
2016-05-19T07:17:21.403Z,900
2016-05-19T07:18:21.406Z,925
2016-05-19T07:19:21.268Z,945
2016-05-19T07:20:21.427Z,955
2016-05-19T07:21:21.430Z,1010
2016-05-19T07:22:21.433Z,1020
2016-05-19T07:23:21.778Z,990
2016-05-19T07:24:21.297Z,1015
2016-05-19T07:25:21.456Z,1020
2016-05-19T07:26:21.459Z,1025
2016-05-19T07:27:21.305Z,1075
2016-05-19T07:28:21.480Z,1335
2016-05-19T07:29:21.311Z,1645
2016-05-19T07:30:21.486Z,1165
2016-05-19T07:31:21.503Z,1130
2016-05-19T07:32:24.241Z,1105
2016-05-19T07:33:21.524Z,1170
2016-05-19T07:34:21.511Z,1160
2016-05-19T07:35:21.218Z,1075
2016-05-19T07:36:21.377Z,1060
2016-05-19T07:37:22.066Z,1115
2016-05-19T07:38:21.991Z,1085
2016-05-19T07:39:21.556Z,1050
2016-05-19T07:40:21.434Z,1045
2016-05-19T07:41:22.734Z,1065
2016-05-19T07:42:21.579Z,1125
2016-05-19T07:43:21.614Z,1120
2016-05-19T07:44:21.632Z,1200
2016-05-19T07:45:21.619Z,1205
2016-05-19T07:46:23.576Z,1510
2016-05-19T07:47:35.671Z,1530
2016-05-19T07:48:36.349Z,1285
2016-05-19T07:49:21.849Z,1245
2016-05-19T07:50:35.696Z,1545
2016-05-19T07:51:21.682Z,1400
2016-05-19T07:52:21.779Z,1495
2016-05-19T07:53:22.281Z,1595
2016-05-19T07:54:21.722Z,1705
2016-05-19T07:55:38.117Z,1445
2016-05-19T07:56:36.777Z,1410
2016-05-19T07:57:21.698Z,1335
2016-05-19T07:58:22.139Z,1255
2016-05-19T07:59:23.641Z,1290
2016-05-19T08:00:22.003Z,1275
2016-05-19T08:01:23.350Z,1460
2016-05-19T08:02:22.508Z,1715
2016-05-19T08:03:22.339Z,1605
2016-05-19T08:04:22.185Z,1480
2016-05-19T08:05:21.860Z,1510
2016-05-19T08:06:21.972Z,1470
2016-05-19T08:07:21.710Z,1660
2016-05-19T08:08:23.150Z,1345
2016-05-19T08:09:24.497Z,1340
2016-05-19T08:10:22.155Z,1800
2016-05-19T08:11:22.486Z,1775
2016-05-19T08:12:21.973Z,1860
2016-05-19T08:13:22.382Z,1410
2016-05-19T08:14:21.963Z,1525
2016-05-19T08:15:21.965Z,1330
2016-05-19T08:16:22.124Z,1345
2016-05-19T08:17:22.002Z,1315
2016-05-19T08:18:21.865Z,1405
2016-05-19T08:19:22.039Z,1445
2016-05-19T08:20:22.042Z,1495
2016-05-19T08:21:22.059Z,1600
2016-05-19T08:22:21.765Z,1835
2016-05-19T08:23:22.628Z,1700
2016-05-19T08:24:22.099Z,1270
2016-05-19T08:25:22.117Z,1325
2016-05-19T08:26:22.135Z,1335
2016-05-19T08:27:22.153Z,1545
2016-05-19T08:28:22.156Z,1595
2016-05-19T08:29:22.019Z,1745
2016-05-19T08:30:22.037Z,1830
2016-05-19T08:31:22.211Z,1595
2016-05-19T08:32:22.058Z,1305
2016-05-19T08:33:22.233Z,1195
2016-05-19T08:34:22.266Z,1180
2016-05-19T08:35:22.255Z,1245
2016-05-19T08:36:21.960Z,1280
2016-05-19T08:37:22.306Z,1240
2016-05-19T08:38:22.512Z,1530
2016-05-19T08:39:22.561Z,1890
2016-05-19T08:40:22.329Z,1995
2016-05-19T08:41:22.363Z,2065
2016-05-19T08:42:22.382Z,2075
2016-05-19T08:43:22.385Z,2025
2016-05-19T08:44:22.388Z,1905
2016-05-19T08:45:22.421Z,1395
2016-05-19T08:46:22.424Z,835
2016-05-19T08:47:22.426Z,715
2016-05-19T08:48:22.460Z,690
2016-05-19T08:49:22.478Z,680
2016-05-19T08:50:22.325Z,665
2016-05-19T08:51:22.328Z,650
2016-05-19T08:52:22.503Z,640
2016-05-19T08:53:22.223Z,610
2016-05-19T08:54:22.945Z,580
2016-05-19T08:55:22.495Z,565
2016-05-19T08:56:22.561Z,555
2016-05-19T08:57:22.578Z,550
2016-05-19T08:58:22.581Z,540
2016-05-19T08:59:22.443Z,535
2016-05-19T09:00:22.461Z,530
2016-05-19T09:01:22.620Z,525
2016-05-19T09:02:22.639Z,515
2016-05-19T09:03:22.658Z,515
2016-05-19T09:04:23.613Z,510
2016-05-19T09:05:23.225Z,515
2016-05-19T09:06:22.525Z,510
2016-05-19T09:07:37.011Z,510
2016-05-19T09:08:23.732Z,515
2016-05-19T09:09:23.235Z,505
2016-05-19T09:10:22.566Z,500
2016-05-19T09:11:22.741Z,485
2016-05-19T09:12:22.540Z,485
2016-05-19T09:13:22.747Z,480
2016-05-19T09:14:23.062Z,475
2016-05-19T09:15:23.173Z,470
2016-05-19T09:16:22.927Z,465
2016-05-19T09:17:24.320Z,460
2016-05-19T09:18:24.682Z,465
2016-05-19T09:19:23.262Z,460
2016-05-19T09:20:23.891Z,465
2016-05-19T09:21:22.924Z,465
2016-05-19T09:22:23.583Z,470
2016-05-19T09:23:22.789Z,480
2016-05-19T09:24:23.026Z,480
2016-05-19T09:25:22.904Z,485
2016-05-19T09:26:22.703Z,490
2016-05-19T09:27:25.769Z,500
2016-05-19T09:28:22.880Z,505
2016-05-19T09:29:22.867Z,510
2016-05-19T09:30:23.933Z,520
2016-05-19T09:31:23.326Z,515
2016-05-19T09:32:23.267Z,520
2016-05-19T09:33:23.300Z,520
2016-05-19T09:34:22.897Z,525
2016-05-19T09:35:22.915Z,530
2016-05-19T09:36:22.777Z,530
2016-05-19T09:37:22.951Z,530
2016-05-19T09:38:23.189Z,525
2016-05-19T09:39:23.145Z,525
2016-05-19T09:40:22.788Z,525
2016-05-19T09:41:22.947Z,525
2016-05-19T09:42:22.965Z,525
2016-05-19T09:43:22.796Z,525
2016-05-19T09:44:23.002Z,530
2016-05-19T09:45:22.973Z,530
2016-05-19T09:46:22.991Z,535
2016-05-19T09:47:22.979Z,535
2016-05-19T09:48:22.997Z,540
2016-05-19T09:49:22.999Z,555
2016-05-19T09:50:22.846Z,565
2016-05-19T09:51:22.865Z,570
2016-05-19T09:52:23.007Z,565
2016-05-19T09:53:23.026Z,560
2016-05-19T09:54:23.607Z,555
2016-05-19T09:55:22.734Z,545
2016-05-19T09:56:23.034Z,535
2016-05-19T09:57:23.053Z,525
2016-05-19T09:58:23.055Z,515
2016-05-19T09:59:23.073Z,505
2016-05-19T10:00:23.076Z,505
2016-05-19T10:01:22.922Z,500
2016-05-19T10:02:23.097Z,495
2016-05-19T10:03:22.928Z,490
2016-05-19T10:04:22.931Z,490
2016-05-19T10:05:23.105Z,490
2016-05-19T10:06:22.967Z,495
2016-05-19T10:07:23.111Z,500
2016-05-19T10:08:23.364Z,500
2016-05-19T10:09:23.303Z,505
2016-05-19T10:10:22.978Z,515
2016-05-19T10:11:23.137Z,525
2016-05-19T10:12:22.718Z,535
2016-05-19T10:13:23.158Z,550
2016-05-19T10:14:23.161Z,555
2016-05-19T10:15:23.007Z,560
2016-05-19T10:16:22.869Z,570
2016-05-19T10:17:23.029Z,560
2016-05-19T10:18:23.046Z,555
2016-05-19T10:19:23.190Z,540
2016-05-19T10:20:23.052Z,525
2016-05-19T10:21:23.211Z,520
2016-05-19T10:22:23.057Z,525
2016-05-19T10:23:23.654Z,530
2016-05-19T10:24:23.156Z,535
2016-05-19T10:25:24.362Z,545
2016-05-19T10:26:37.412Z,535
2016-05-19T10:27:23.618Z,530
2016-05-19T10:28:37.433Z,520
2016-05-19T10:29:23.607Z,520
2016-05-19T10:30:23.267Z,520
2016-05-19T10:31:23.284Z,520
2016-05-19T10:32:24.381Z,515
2016-05-19T10:33:25.431Z,515
2016-05-19T10:35:23.858Z,505
2016-05-19T10:36:24.783Z,500
2016-05-19T10:37:23.894Z,495
2016-05-19T10:38:24.272Z,500
2016-05-19T10:39:24.494Z,495
2016-05-19T10:40:24.184Z,495
2016-05-19T10:41:23.921Z,485
2016-05-19T10:42:24.049Z,480
2016-05-19T10:43:23.192Z,475
2016-05-19T10:44:23.444Z,470
2016-05-19T10:45:25.291Z,465
2016-05-19T10:46:24.919Z,470
2016-05-19T10:47:24.219Z,475
2016-05-19T10:48:23.393Z,485
2016-05-19T10:49:24.115Z,485
2016-05-19T10:50:24.054Z,495
2016-05-19T10:51:23.260Z,500
2016-05-19T10:52:23.419Z,500
2016-05-19T10:53:23.579Z,500
2016-05-19T10:54:23.440Z,495
2016-05-19T10:55:23.427Z,500
2016-05-19T10:56:23.290Z,495
2016-05-19T10:57:23.464Z,495
2016-05-19T10:58:23.169Z,500
2016-05-19T10:59:23.313Z,510
2016-05-19T11:00:23.316Z,520
2016-05-19T11:01:23.318Z,520
2016-05-19T11:02:23.478Z,520
2016-05-19T11:03:23.339Z,530
2016-05-19T11:04:23.186Z,530
2016-05-19T11:05:23.500Z,540
2016-05-19T11:06:23.519Z,555
2016-05-19T11:07:23.538Z,565
2016-05-19T11:08:23.212Z,560
2016-05-19T11:09:23.387Z,560
2016-05-19T11:10:23.374Z,560
2016-05-19T11:11:23.548Z,555
2016-05-19T11:12:23.394Z,555
2016-05-19T11:13:25.430Z,565
2016-05-19T11:14:23.557Z,580
2016-05-19T11:15:23.591Z,595
2016-05-19T11:16:23.577Z,610
2016-05-19T11:17:23.424Z,630
2016-05-19T11:18:23.582Z,630
2016-05-19T11:19:23.445Z,625
2016-05-19T11:20:23.604Z,615
2016-05-19T11:21:23.622Z,615
2016-05-19T11:22:23.468Z,610
2016-05-19T11:23:23.487Z,610
2016-05-19T11:24:23.505Z,610
2016-05-19T11:25:23.665Z,610
2016-05-19T11:26:23.667Z,600
2016-05-19T11:27:23.670Z,580
2016-05-19T11:28:23.516Z,565
2016-05-19T11:29:23.691Z,555
2016-05-19T11:30:23.709Z,550
2016-05-19T11:31:23.696Z,550
2016-05-19T11:32:23.698Z,560
2016-05-19T11:33:23.717Z,580
2016-05-19T11:34:23.719Z,590
2016-05-19T11:35:23.738Z,590
2016-05-19T11:36:23.428Z,585
2016-05-19T11:37:23.744Z,570
2016-05-19T11:38:27.136Z,560
2016-05-19T11:39:23.764Z,550
2016-05-19T11:40:23.766Z,545
2016-05-19T11:41:23.629Z,540
2016-05-19T11:42:24.476Z,545
2016-05-19T11:43:27.494Z,555
2016-05-19T11:44:23.480Z,565
2016-05-19T11:45:38.077Z,585
2016-05-19T11:46:23.846Z,590
2016-05-19T11:47:23.699Z,590
2016-05-19T11:48:24.851Z,590
2016-05-19T11:49:23.972Z,590
2016-05-19T11:50:24.000Z,590
2016-05-19T11:51:25.995Z,600
2016-05-19T11:52:25.125Z,590
2016-05-19T11:53:24.970Z,580
2016-05-19T11:54:24.612Z,570
2016-05-19T11:55:24.488Z,555
2016-05-19T11:56:25.130Z,550
2016-05-19T11:57:25.155Z,545
2016-05-19T11:58:24.725Z,545
2016-05-19T11:59:24.608Z,550
2016-05-19T12:00:24.102Z,555
2016-05-19T12:01:24.531Z,570
2016-05-19T12:02:24.286Z,580
2016-05-19T12:03:24.369Z,585
2016-05-19T12:04:25.029Z,590
2016-05-19T12:05:24.456Z,605
2016-05-19T12:06:25.586Z,605
2016-05-19T12:07:24.136Z,605
2016-05-19T12:08:25.405Z,605
2016-05-19T12:09:24.689Z,610
2016-05-19T12:10:24.521Z,615
2016-05-19T12:11:24.165Z,620
2016-05-19T12:12:24.403Z,610
2016-05-19T12:13:25.140Z,600
2016-05-19T12:14:24.362Z,595
2016-05-19T12:15:27.068Z,590
2016-05-19T12:16:24.369Z,590
2016-05-19T12:17:24.074Z,570
2016-05-19T12:18:25.280Z,535
2016-05-19T12:19:24.392Z,505
2016-05-19T12:20:24.426Z,495
2016-05-19T12:21:24.396Z,490
2016-05-19T12:22:24.415Z,490
2016-05-19T12:23:24.418Z,500
2016-05-19T12:24:24.765Z,520
2016-05-19T12:25:24.423Z,535
2016-05-19T12:26:24.285Z,550
2016-05-19T12:27:24.445Z,570
2016-05-19T12:28:25.901Z,570
2016-05-19T12:29:24.465Z,570
2016-05-19T12:30:24.484Z,565
2016-05-19T12:31:24.487Z,555
2016-05-19T12:32:24.318Z,550
2016-05-19T12:33:24.336Z,555
2016-05-19T12:34:24.354Z,550
2016-05-19T12:35:24.512Z,545
2016-05-19T12:36:24.515Z,545
2016-05-19T12:37:24.534Z,535
2016-05-19T12:38:24.553Z,530
2016-05-19T12:39:24.398Z,515
2016-05-19T12:40:24.573Z,505
2016-05-19T12:41:24.561Z,495
2016-05-19T12:42:24.236Z,480
2016-05-19T12:43:24.769Z,470
2016-05-19T12:44:24.569Z,455
2016-05-19T12:45:24.586Z,450
2016-05-19T12:46:24.589Z,440
2016-05-19T12:47:24.592Z,435
2016-05-19T12:48:26.563Z,425
2016-05-19T12:49:24.457Z,420
2016-05-19T12:50:24.632Z,410
2016-05-19T12:51:24.619Z,410
2016-05-19T12:52:24.496Z,415
2016-05-19T12:53:24.515Z,415
2016-05-19T12:54:24.830Z,415
2016-05-19T12:55:24.645Z,415
2016-05-19T12:56:24.507Z,420
2016-05-19T12:57:24.666Z,420
2016-05-19T12:58:25.559Z,425
2016-05-19T12:59:24.672Z,430
2016-05-19T13:00:24.534Z,430
2016-05-19T13:01:40.021Z,440
2016-05-19T13:02:24.695Z,450
2016-05-19T13:03:24.698Z,455
2016-05-19T13:04:24.856Z,460
2016-05-19T13:05:24.922Z,465
2016-05-19T13:06:24.268Z,475
2016-05-19T13:07:24.412Z,480
2016-05-19T13:08:24.743Z,495
2016-05-19T13:09:25.526Z,505
2016-05-19T13:10:39.842Z,530
2016-05-19T13:11:24.938Z,540
2016-05-19T13:12:25.425Z,545
2016-05-19T13:13:27.865Z,545
2016-05-19T13:14:25.400Z,565
2016-05-19T13:15:25.511Z,590
2016-05-19T13:16:24.966Z,600
2016-05-19T13:17:25.985Z,600
2016-05-19T13:18:28.739Z,600
2016-05-19T13:19:24.819Z,610
2016-05-19T13:20:24.916Z,615
2016-05-19T13:21:24.824Z,610
2016-05-19T13:22:24.843Z,610
2016-05-19T13:23:30.033Z,595
2016-05-19T13:24:25.238Z,580
2016-05-19T13:25:25.319Z,575
2016-05-19T13:26:25.354Z,555
2016-05-19T13:27:24.857Z,545
2016-05-19T13:28:25.656Z,520
2016-05-19T13:29:24.907Z,510
2016-05-19T13:30:25.035Z,485
2016-05-19T13:31:24.726Z,470
2016-05-19T13:32:24.901Z,455
2016-05-19T13:33:24.918Z,455
2016-05-19T13:34:24.765Z,455
2016-05-19T13:35:24.956Z,450
2016-05-19T13:36:24.959Z,450
2016-05-19T13:37:24.945Z,450
2016-05-19T13:38:24.964Z,450
2016-05-19T13:39:25.467Z,460
2016-05-19T13:40:24.984Z,455
2016-05-19T13:41:24.831Z,465
2016-05-19T13:42:24.975Z,470
2016-05-19T13:43:24.696Z,480
2016-05-19T13:44:24.995Z,490
2016-05-19T13:45:25.030Z,495
2016-05-19T13:46:25.017Z,495
2016-05-19T13:47:24.863Z,495
2016-05-19T13:48:24.725Z,495
2016-05-19T13:49:25.041Z,485
2016-05-19T13:50:24.886Z,490
2016-05-19T13:51:25.061Z,505
2016-05-19T13:52:24.908Z,515
2016-05-19T13:53:29.504Z,515
2016-05-19T13:54:25.163Z,515
2016-05-19T13:55:24.963Z,515
2016-05-19T13:56:24.793Z,515
2016-05-19T13:57:24.952Z,510
2016-05-19T13:58:24.815Z,505
2016-05-19T13:59:24.817Z,505
2016-05-19T14:00:24.976Z,500
2016-05-19T14:01:24.978Z,500
2016-05-19T14:02:24.997Z,500
2016-05-19T14:03:25.171Z,500
2016-05-19T14:04:25.159Z,500
2016-05-19T14:05:25.177Z,495
2016-05-19T14:06:25.023Z,490
2016-05-19T14:07:25.182Z,480
2016-05-19T14:08:29.497Z,465
2016-05-19T14:09:25.219Z,455
2016-05-19T14:10:25.223Z,450
2016-05-19T14:11:25.084Z,450
2016-05-19T14:12:25.086Z,450
2016-05-19T14:13:25.293Z,450
2016-05-19T14:14:25.092Z,440
2016-05-19T14:15:25.266Z,435
2016-05-19T14:16:24.973Z,430
2016-05-19T14:17:25.256Z,435
2016-05-19T14:18:31.025Z,440
2016-05-19T14:19:28.121Z,445
2016-05-19T14:20:39.655Z,450
2016-05-19T14:21:26.252Z,455
2016-05-19T14:22:25.145Z,455
2016-05-19T14:23:29.928Z,460
2016-05-19T14:24:25.228Z,460
2016-05-19T14:25:25.324Z,460
2016-05-19T14:26:25.171Z,455
2016-05-19T14:27:25.205Z,460
2016-05-19T14:28:25.332Z,460
2016-05-19T14:29:26.663Z,455
2016-05-19T14:30:40.979Z,460
2016-05-19T14:31:39.935Z,470
2016-05-19T14:32:27.156Z,475
2016-05-19T14:33:26.721Z,470
2016-05-19T14:34:25.661Z,470
2016-05-19T14:35:26.757Z,470
2016-05-19T14:36:25.135Z,470
2016-05-19T14:37:26.154Z,470
2016-05-19T14:38:30.172Z,475
2016-05-19T14:39:25.815Z,470
2016-05-19T14:40:25.411Z,475
2016-05-19T14:41:25.274Z,480
2016-05-19T14:42:27.448Z,480
2016-05-19T14:43:30.920Z,470
2016-05-19T14:44:25.439Z,470
2016-05-19T14:45:26.628Z,475
2016-05-19T14:46:25.475Z,465
2016-05-19T14:47:25.525Z,460
2016-05-19T14:48:25.496Z,450